Am Falls, Idaho
Current Conditions -  °F | °C
As of 8:53 AM on Friday 28 Nov 2014 (Local Time) from KPIH Reporting Station
Clear Clear  
Wind Chill: 42°   Ceiling: Unl
Heat Index: 47°   Visibility: 10mi
Dew Point: 25°   Wind: 10mph
Humidity: 42%   Direction: 210°SSW
Pressure: 29.91"   Gusts: NA
Location:  42.8287°N, 113.023°W
Report Text: KPIH 281553Z 21009KT 10SM CLR 08/M04 A2991 RMK AO2 SLP116 T00831039
Loading
Personal Weather Stations






























Interactive Weather Map New forecast layout! Learn more

10-Day Weather Forecast

Advertisements
Track Severe Weather on mobile